createdAt,value
2022-07-28T00:00:01.393Z,98759.81
2022-07-28T00:02:28.786Z,98758.97
2022-07-28T00:04:56.234Z,98753.41
2022-07-28T00:07:22.838Z,98755.81
2022-07-28T00:09:49.718Z,98756.13
2022-07-28T00:12:16.731Z,98749.78
2022-07-28T00:14:43.474Z,98753.38
2022-07-28T00:17:10.308Z,98750.75
2022-07-28T00:19:37.017Z,98750.75
2022-07-28T00:22:04.141Z,98744.50
2022-07-28T00:24:31.724Z,98746.13
2022-07-28T00:26:58.397Z,98748.75
2022-07-28T00:29:24.931Z,98741.38
2022-07-28T00:32:11.450Z,98741.69
2022-07-28T00:34:38.491Z,98741.44
2022-07-28T00:37:07.295Z,98742.97
2022-07-28T00:39:40.015Z,98745.03
2022-07-28T00:42:06.771Z,98733.13
2022-07-28T00:44:33.270Z,98731.13
2022-07-28T00:46:59.871Z,98739.97
2022-07-28T00:49:26.746Z,98728.50
2022-07-28T00:51:53.814Z,98740.41
2022-07-28T00:54:20.444Z,98736.59
2022-07-28T00:56:46.955Z,98723.66
2022-07-28T00:59:13.528Z,98724.94
2022-07-28T01:01:40.256Z,98730.84
2022-07-28T01:04:07.208Z,98734.88
2022-07-28T01:07:16.494Z,98728.28
2022-07-28T01:09:58.227Z,98724.66
2022-07-28T01:12:55.562Z,98732.69
2022-07-28T01:15:40.749Z,98730.88
2022-07-28T01:18:14.871Z,98731.94
2022-07-28T01:20:52.593Z,98734.19
2022-07-28T01:23:58.648Z,98729.22
2022-07-28T01:26:31.339Z,98733.09
2022-07-28T01:29:18.811Z,98731.66
2022-07-28T01:31:57.085Z,98726.81
2022-07-28T01:34:45.477Z,98720.50
2022-07-28T01:37:19.315Z,98718.19
2022-07-28T01:39:52.434Z,98720.25
2022-07-28T01:42:24.083Z,98705.47
2022-07-28T01:44:57.324Z,98708.97
2022-07-28T01:47:27.891Z,98712.53
2022-07-28T01:49:59.692Z,98716.41
2022-07-28T01:52:28.997Z,98712.84
2022-07-28T01:54:59.152Z,98714.78
2022-07-28T01:57:29.793Z,98706.94
2022-07-28T02:00:00.080Z,98705.47
2022-07-28T02:02:31.008Z,98704.84
2022-07-28T02:05:00.790Z,98698.28
2022-07-28T02:07:29.813Z,98697.88
2022-07-28T02:09:58.596Z,98696.31
2022-07-28T02:12:27.956Z,98691.13
2022-07-28T02:14:57.269Z,98699.75
2022-07-28T02:17:33.450Z,98687.81
2022-07-28T02:20:03.195Z,98690.94
2022-07-28T02:22:32.474Z,98694.31
2022-07-28T02:24:59.424Z,98689.13
2022-07-28T02:27:40.463Z,98685.84
2022-07-28T02:30:22.203Z,98687.75
2022-07-28T02:32:54.980Z,98683.50
2022-07-28T02:35:49.129Z,98676.94
2022-07-28T02:38:30.207Z,98686.25
2022-07-28T02:41:03.790Z,98683.72
2022-07-28T02:43:49.477Z,98679.50
2022-07-28T02:46:24.105Z,98680.81
2022-07-28T02:49:06.540Z,98684.56
2022-07-28T02:51:36.494Z,98685.41
2022-07-28T02:54:04.615Z,98682.69
2022-07-28T02:56:32.386Z,98673.72
2022-07-28T02:59:00.831Z,98678.31
2022-07-28T03:01:28.051Z,98671.56
2022-07-28T03:03:56.609Z,98668.53
2022-07-28T03:06:28.510Z,98674.72
2022-07-28T03:08:56.699Z,98673.13
2022-07-28T03:11:23.350Z,98668.91
2022-07-28T03:13:49.947Z,98669.31
2022-07-28T03:16:16.519Z,98666.66
2022-07-28T03:18:43.120Z,98658.59
2022-07-28T03:21:09.620Z,98658.38
2022-07-28T03:23:48.179Z,98660.16
2022-07-28T03:26:30.503Z,98665.06
2022-07-28T03:29:00.202Z,98653.81
2022-07-28T03:31:29.063Z,98654.25
2022-07-28T03:33:56.771Z,98660.72
2022-07-28T03:36:30.883Z,98665.78
2022-07-28T03:39:11.907Z,98665.50
2022-07-28T03:41:42.238Z,98664.56
2022-07-28T03:44:12.335Z,98664.75
2022-07-28T03:46:46.379Z,98667.13
2022-07-28T03:49:13.174Z,98661.56
2022-07-28T03:51:39.824Z,98662.53
2022-07-28T03:54:06.450Z,98666.66
2022-07-28T03:56:32.959Z,98657.09
2022-07-28T03:58:59.604Z,98655.00
2022-07-28T04:01:26.215Z,98650.09
2022-07-28T04:03:52.816Z,98656.66
2022-07-28T04:06:19.553Z,98655.72
2022-07-28T04:08:46.460Z,98664.25
2022-07-28T04:11:13.073Z,98659.38
2022-07-28T04:13:39.624Z,98654.22
2022-07-28T04:16:07.511Z,98655.91
2022-07-28T04:18:34.591Z,98666.06
2022-07-28T04:21:01.203Z,98666.44
2022-07-28T04:23:28.000Z,98664.84
2022-07-28T04:25:54.505Z,98660.50
2022-07-28T04:28:21.102Z,98659.47
2022-07-28T04:30:47.674Z,98663.25
2022-07-28T04:33:14.285Z,98657.16
2022-07-28T04:35:40.840Z,98656.13
2022-07-28T04:38:07.693Z,98650.88
2022-07-28T04:40:34.489Z,98660.13
2022-07-28T04:43:01.403Z,98663.53
2022-07-28T04:45:28.770Z,98658.25
2022-07-28T04:47:55.326Z,98656.25
2022-07-28T04:50:21.889Z,98659.47
2022-07-28T04:52:49.784Z,98657.81
2022-07-28T04:55:17.837Z,98657.63
2022-07-28T04:57:44.819Z,98659.00
2022-07-28T05:00:13.757Z,98666.28
2022-07-28T05:02:42.332Z,98659.19
2022-07-28T05:05:09.874Z,98651.66
2022-07-28T05:07:38.319Z,98649.34
2022-07-28T05:10:10.541Z,98652.13
2022-07-28T05:12:38.098Z,98651.53
2022-07-28T05:15:07.241Z,98647.13
2022-07-28T05:17:34.538Z,98650.00
2022-07-28T05:20:01.048Z,98639.53
2022-07-28T05:22:41.051Z,98638.13
2022-07-28T05:25:14.882Z,98632.22
2022-07-28T05:27:41.411Z,98637.47
2022-07-28T05:30:09.326Z,98643.69
2022-07-28T05:32:35.864Z,98639.66
2022-07-28T05:35:02.358Z,98642.53
2022-07-28T05:37:29.128Z,98639.09
2022-07-28T05:39:55.670Z,98644.03
2022-07-28T05:42:22.259Z,98644.59
2022-07-28T05:44:48.771Z,98642.66
2022-07-28T05:47:15.287Z,98651.63
2022-07-28T05:49:41.835Z,98646.50
2022-07-28T05:52:08.347Z,98652.09
2022-07-28T05:54:34.867Z,98649.56
2022-07-28T05:57:01.437Z,98647.66
2022-07-28T05:59:27.931Z,98652.47
2022-07-28T06:01:54.517Z,98644.50
2022-07-28T06:04:29.032Z,98652.50
2022-07-28T06:06:56.909Z,98645.81
2022-07-28T06:09:23.543Z,98644.47
2022-07-28T06:11:50.682Z,98644.38
2022-07-28T06:14:18.805Z,98635.41
2022-07-28T06:16:50.775Z,98637.59
2022-07-28T06:19:18.532Z,98634.50
2022-07-28T06:21:45.155Z,98638.47
2022-07-28T06:24:12.143Z,98637.16
2022-07-28T06:26:44.336Z,98631.78
2022-07-28T06:29:12.293Z,98626.56
2022-07-28T06:31:39.134Z,98616.19
2022-07-28T06:34:06.448Z,98617.00
2022-07-28T06:36:33.018Z,98628.19
2022-07-28T06:38:59.618Z,98619.16
2022-07-28T06:41:26.158Z,98613.78
2022-07-28T06:43:52.693Z,98624.94
2022-07-28T06:46:19.869Z,98623.84
2022-07-28T06:48:46.766Z,98624.63
2022-07-28T06:51:14.964Z,98618.53
2022-07-28T06:53:41.575Z,98625.34
2022-07-28T06:56:10.886Z,98625.13
2022-07-28T06:58:40.541Z,98624.06
2022-07-28T07:01:07.809Z,98624.97
2022-07-28T07:03:34.781Z,98626.97
2022-07-28T07:06:01.392Z,98632.56
2022-07-28T07:08:28.219Z,98627.44
2022-07-28T07:10:55.138Z,98625.16
2022-07-28T07:13:21.652Z,98625.19
2022-07-28T07:15:48.210Z,98632.47
2022-07-28T07:18:14.819Z,98624.94
2022-07-28T07:20:41.660Z,98631.22
2022-07-28T07:23:08.217Z,98627.22
2022-07-28T07:25:34.848Z,98623.44
2022-07-28T07:28:01.392Z,98619.53
2022-07-28T07:30:27.940Z,98623.91
2022-07-28T07:32:54.438Z,98624.63
2022-07-28T07:35:21.028Z,98627.53
2022-07-28T07:37:47.564Z,98627.66
2022-07-28T07:40:14.211Z,98635.53
2022-07-28T07:42:40.733Z,98629.25
2022-07-28T07:45:07.986Z,98626.72
2022-07-28T07:47:34.564Z,98623.47
2022-07-28T07:50:04.211Z,98617.72
2022-07-28T07:52:31.556Z,98617.81
2022-07-28T07:54:58.239Z,98619.31
2022-07-28T07:57:24.857Z,98614.13
2022-07-28T07:59:51.462Z,98606.41
2022-07-28T08:02:17.969Z,98606.66
2022-07-28T08:04:44.556Z,98596.72
2022-07-28T08:07:11.467Z,98595.13
2022-07-28T08:09:38.610Z,98600.84
2022-07-28T08:12:05.727Z,98596.34
2022-07-28T08:14:32.359Z,98597.91
2022-07-28T08:16:59.508Z,98589.72
2022-07-28T08:19:26.814Z,98589.34
2022-07-28T08:21:53.644Z,98578.94
2022-07-28T08:24:33.013Z,98585.94
2022-07-28T08:27:02.410Z,98586.19
2022-07-28T08:29:29.211Z,98579.94
2022-07-28T08:31:56.315Z,98583.38
2022-07-28T08:34:31.029Z,98577.16
2022-07-28T08:37:03.765Z,98581.03
2022-07-28T08:39:35.447Z,98584.16
2022-07-28T08:42:34.201Z,98577.50
2022-07-28T08:45:07.751Z,98585.50
2022-07-28T08:47:46.043Z,98579.63
2022-07-28T08:50:24.433Z,98580.00
2022-07-28T08:52:53.769Z,98586.44
2022-07-28T08:55:31.514Z,98583.81
2022-07-28T08:58:00.423Z,98579.63
2022-07-28T09:00:27.780Z,98576.69
2022-07-28T09:02:55.999Z,98587.41
2022-07-28T09:05:24.258Z,98588.75
2022-07-28T09:07:55.202Z,98582.63
2022-07-28T09:10:23.381Z,98579.16
2022-07-28T09:12:50.154Z,98577.03
2022-07-28T09:15:16.723Z,98575.91
2022-07-28T09:17:43.494Z,98567.22
2022-07-28T09:20:12.197Z,98576.94
2022-07-28T09:23:33.565Z,98569.38
2022-07-28T09:26:12.448Z,98560.72
2022-07-28T09:28:58.245Z,98567.09
2022-07-28T09:31:28.404Z,98571.47
2022-07-28T09:34:00.736Z,98565.63
2022-07-28T09:36:30.196Z,98559.97
2022-07-28T09:38:57.204Z,98564.50
2022-07-28T09:41:24.616Z,98558.81
2022-07-28T09:43:55.143Z,98559.00
2022-07-28T09:46:25.604Z,98565.34
2022-07-28T09:49:02.212Z,98555.31
2022-07-28T09:51:31.451Z,98553.63
2022-07-28T09:54:08.533Z,98551.44
2022-07-28T09:56:35.618Z,98546.25
2022-07-28T09:59:03.596Z,98548.41
2022-07-28T10:01:35.218Z,98547.22
2022-07-28T10:04:04.299Z,98545.50
2022-07-28T10:06:33.674Z,98547.34
2022-07-28T10:09:04.325Z,98546.44
2022-07-28T10:11:31.652Z,98532.22
2022-07-28T10:14:07.116Z,98534.75
2022-07-28T10:16:36.603Z,98539.75
2022-07-28T10:19:05.697Z,98534.41
2022-07-28T10:21:42.102Z,98528.63
2022-07-28T10:24:14.235Z,98525.25
2022-07-28T10:26:45.138Z,98530.56
2022-07-28T10:29:18.231Z,98518.13
2022-07-28T10:32:14.079Z,98524.75
2022-07-28T10:34:52.236Z,98514.56
2022-07-28T10:37:23.568Z,98516.13
2022-07-28T10:40:12.488Z,98521.78
2022-07-28T10:42:40.821Z,98517.31
2022-07-28T10:45:11.435Z,98518.16
2022-07-28T10:47:38.002Z,98513.75
2022-07-28T10:50:06.164Z,98512.91
2022-07-28T10:52:47.358Z,98513.91
2022-07-28T10:55:57.668Z,98507.13
2022-07-28T10:59:21.439Z,98506.34
2022-07-28T11:01:52.283Z,98513.69
2022-07-28T11:04:52.108Z,98509.56
2022-07-28T11:07:20.715Z,98515.94
2022-07-28T11:09:48.425Z,98507.06
2022-07-28T11:12:16.621Z,98502.06
2022-07-28T11:14:44.729Z,98502.84
2022-07-28T11:17:13.010Z,98495.66
2022-07-28T11:22:33.970Z,98485.81
2022-07-28T11:25:19.021Z,98492.38
2022-07-28T11:27:51.206Z,98491.28
2022-07-28T11:30:35.664Z,98487.88
2022-07-28T11:33:09.328Z,98485.34
2022-07-28T11:35:38.883Z,98487.09
2022-07-28T11:38:05.833Z,98481.63
2022-07-28T11:40:46.132Z,98469.78
2022-07-28T11:43:22.782Z,98476.69
2022-07-28T11:46:01.848Z,98470.00
2022-07-28T11:48:29.927Z,98472.38
2022-07-28T11:51:02.541Z,98475.13
2022-07-28T11:53:51.754Z,98470.06
2022-07-28T11:56:32.674Z,98474.16
2022-07-28T11:59:03.658Z,98474.44
2022-07-28T12:01:32.460Z,98473.66
2022-07-28T12:04:12.226Z,98460.22
2022-07-28T12:06:42.844Z,98467.56
2022-07-28T12:09:13.285Z,98460.97
2022-07-28T12:11:42.575Z,98464.13
2022-07-28T12:14:16.431Z,98467.72
2022-07-28T12:16:45.961Z,98466.31
2022-07-28T12:19:17.043Z,98461.06
2022-07-28T12:21:55.572Z,98468.28
2022-07-28T12:24:45.777Z,98457.59
2022-07-28T12:27:15.414Z,98461.31
2022-07-28T12:29:43.711Z,98451.69
2022-07-28T12:32:10.689Z,98456.91
2022-07-28T12:34:40.347Z,98439.34
2022-07-28T12:37:12.101Z,98442.56
2022-07-28T12:39:41.866Z,98444.06
2022-07-28T12:42:11.757Z,98435.06
2022-07-28T12:44:41.961Z,98427.81
2022-07-28T12:47:13.035Z,98431.22
2022-07-28T12:49:42.778Z,98430.94
2022-07-28T12:52:18.056Z,98427.78
2022-07-28T12:54:53.003Z,98434.00
2022-07-28T12:57:51.015Z,98437.53
2022-07-28T13:00:34.638Z,98429.44
2022-07-28T13:03:27.262Z,98428.63
2022-07-28T13:06:02.317Z,98422.06
2022-07-28T13:08:45.326Z,98421.31
2022-07-28T13:11:41.867Z,98414.06
2022-07-28T13:14:01.126Z,98418.84
2022-07-28T13:16:29.851Z,98417.22
2022-07-28T13:19:02.549Z,98415.97
2022-07-28T13:21:57.102Z,98421.59
2022-07-28T13:24:26.890Z,98418.13
2022-07-28T13:26:53.558Z,98416.28
2022-07-28T13:29:20.545Z,98409.00
2022-07-28T13:31:47.226Z,98411.31
2022-07-28T13:34:14.606Z,98416.72
2022-07-28T13:36:41.751Z,98407.97
2022-07-28T13:39:13.786Z,98406.94
2022-07-28T13:41:57.784Z,98405.03
2022-07-28T13:44:30.219Z,98394.47
2022-07-28T13:47:00.223Z,98400.91
2022-07-28T13:49:33.850Z,98390.16
2022-07-28T13:52:01.597Z,98398.47
2022-07-28T13:54:28.565Z,98395.34
2022-07-28T13:57:11.796Z,98389.53
2022-07-28T13:59:39.351Z,98394.13
2022-07-28T14:02:06.269Z,98397.84
2022-07-28T14:04:48.912Z,98394.34
2022-07-28T14:07:21.177Z,98393.69
2022-07-28T14:09:50.407Z,98394.34
2022-07-28T14:12:18.055Z,98397.03
2022-07-28T14:14:48.506Z,98385.19
2022-07-28T14:20:10.509Z,98389.94
2022-07-28T14:22:37.171Z,98383.94
2022-07-28T14:25:04.221Z,98381.84
2022-07-28T14:27:30.935Z,98387.03
2022-07-28T14:29:57.543Z,98386.63
2022-07-28T14:32:24.251Z,98385.59
2022-07-28T14:34:51.176Z,98381.25
2022-07-28T14:37:20.039Z,98387.47
2022-07-28T14:39:46.568Z,98377.50
2022-07-28T14:42:13.292Z,98382.06
2022-07-28T14:44:40.324Z,98385.81
2022-07-28T14:47:07.377Z,98380.00
2022-07-28T14:49:35.548Z,98376.88
2022-07-28T14:52:03.600Z,98376.28
2022-07-28T14:54:30.348Z,98377.31
2022-07-28T14:56:57.039Z,98377.69
2022-07-28T14:59:23.594Z,98379.59
2022-07-28T15:01:50.749Z,98376.06
2022-07-28T15:04:18.479Z,98376.69
2022-07-28T15:06:46.031Z,98375.84
2022-07-28T15:09:14.197Z,98375.63
2022-07-28T15:11:41.859Z,98372.50
2022-07-28T15:14:08.430Z,98367.75
2022-07-28T15:16:35.080Z,98365.47
2022-07-28T15:19:02.234Z,98379.56
2022-07-28T15:21:34.326Z,98377.50
2022-07-28T15:24:03.988Z,98368.81
2022-07-28T15:26:30.523Z,98371.88
2022-07-28T15:28:57.148Z,98365.03
2022-07-28T15:31:26.973Z,98377.28
2022-07-28T15:33:58.353Z,98365.03
2022-07-28T15:36:25.563Z,98370.00
2022-07-28T15:38:53.864Z,98369.81
2022-07-28T15:41:20.689Z,98360.50
2022-07-28T15:43:48.085Z,98365.25
2022-07-28T15:46:14.818Z,98367.13
2022-07-28T15:48:44.713Z,98363.38
2022-07-28T15:51:11.765Z,98365.47
2022-07-28T15:53:39.476Z,98350.28
2022-07-28T15:56:06.219Z,98354.22
2022-07-28T15:58:32.989Z,98353.41
2022-07-28T16:01:01.791Z,98358.81
2022-07-28T16:03:29.818Z,98351.34
2022-07-28T16:05:58.499Z,98350.50
2022-07-28T16:08:25.072Z,98349.25
2022-07-28T16:10:54.320Z,98351.31
2022-07-28T16:13:32.177Z,98348.63
2022-07-28T16:16:14.861Z,98346.78
2022-07-28T16:18:44.336Z,98346.38
2022-07-28T16:21:11.184Z,98343.88
2022-07-28T16:23:37.961Z,98346.78
2022-07-28T16:26:07.674Z,98342.00
2022-07-28T16:28:35.150Z,98340.53
2022-07-28T16:31:01.794Z,98342.63
2022-07-28T16:33:28.344Z,98338.47
2022-07-28T16:36:01.247Z,98338.47
2022-07-28T16:38:27.935Z,98338.28
2022-07-28T16:40:54.457Z,98335.56
2022-07-28T16:43:21.272Z,98339.94
2022-07-28T16:45:47.821Z,98341.09
2022-07-28T16:48:14.347Z,98345.47
2022-07-28T16:50:45.707Z,98341.31
2022-07-28T16:53:13.744Z,98338.41
2022-07-28T16:55:41.991Z,98342.31
2022-07-28T16:58:08.546Z,98340.25
2022-07-28T17:00:35.260Z,98342.13
2022-07-28T17:03:01.783Z,98335.69
2022-07-28T17:05:28.331Z,98341.91
2022-07-28T17:07:54.844Z,98337.94
2022-07-28T17:10:27.284Z,98340.44
2022-07-28T17:12:54.601Z,98340.41
2022-07-28T17:15:22.397Z,98336.66
2022-07-28T17:17:50.696Z,98341.63
2022-07-28T17:20:17.436Z,98341.19
2022-07-28T17:22:44.679Z,98341.19
2022-07-28T17:25:42.902Z,98335.38
2022-07-28T17:27:58.500Z,98341.97
2022-07-28T17:30:25.452Z,98347.53
2022-07-28T17:32:52.904Z,98342.75
2022-07-28T17:35:31.705Z,98336.94
2022-07-28T17:38:04.373Z,98344.16
2022-07-28T17:40:32.476Z,98333.97
2022-07-28T17:42:59.035Z,98338.03
2022-07-28T17:45:25.759Z,98334.47
2022-07-28T17:47:52.419Z,98340.22
2022-07-28T17:50:19.663Z,98341.84
2022-07-28T17:52:46.518Z,98339.06
2022-07-28T17:55:55.762Z,98338.66
2022-07-28T17:58:32.204Z,98343.75
2022-07-28T18:01:10.874Z,98347.19
2022-07-28T18:03:56.533Z,98349.38
2022-07-28T18:06:33.317Z,98345.78
2022-07-28T18:09:08.361Z,98341.22
2022-07-28T18:11:57.245Z,98349.41
2022-07-28T18:14:27.267Z,98348.13
2022-07-28T18:16:54.296Z,98347.69
2022-07-28T18:19:21.070Z,98343.88
2022-07-28T18:21:47.614Z,98351.88
2022-07-28T18:24:14.555Z,98352.84
2022-07-28T18:26:41.276Z,98344.72
2022-07-28T18:29:07.857Z,98343.63
2022-07-28T18:31:34.486Z,98342.44
2022-07-28T18:34:01.515Z,98343.94
2022-07-28T18:36:28.028Z,98341.66
2022-07-28T18:38:54.651Z,98348.16
2022-07-28T18:41:21.274Z,98344.19
2022-07-28T18:43:47.862Z,98342.78
2022-07-28T18:46:15.387Z,98351.50
2022-07-28T18:48:42.053Z,98352.25
2022-07-28T18:51:08.660Z,98353.16
2022-07-28T18:53:36.115Z,98354.06
2022-07-28T18:56:02.664Z,98354.97
2022-07-28T18:58:29.643Z,98362.66
2022-07-28T19:00:56.596Z,98356.53
2022-07-28T19:03:23.143Z,98361.84
2022-07-28T19:05:49.727Z,98360.72
2022-07-28T19:08:17.172Z,98362.94
2022-07-28T19:10:43.997Z,98370.81
2022-07-28T19:13:12.829Z,98360.50
2022-07-28T19:15:41.270Z,98363.44
2022-07-28T19:18:10.604Z,98368.19
2022-07-28T19:20:43.853Z,98370.22
2022-07-28T19:23:10.399Z,98372.72
2022-07-28T19:25:39.556Z,98372.41
2022-07-28T19:28:07.183Z,98382.81
2022-07-28T19:30:34.970Z,98381.19
2022-07-28T19:33:02.603Z,98386.38
2022-07-28T19:35:29.229Z,98380.06
2022-07-28T19:37:59.525Z,98390.41
2022-07-28T19:40:29.064Z,98384.75
2022-07-28T19:42:56.659Z,98382.53
2022-07-28T19:45:23.241Z,98386.75
2022-07-28T19:47:50.142Z,98394.44
2022-07-28T19:50:17.056Z,98396.94
2022-07-28T19:52:43.706Z,98396.91
2022-07-28T19:55:12.750Z,98393.75
2022-07-28T19:57:45.146Z,98399.78
2022-07-28T20:00:13.389Z,98398.09
2022-07-28T20:02:40.351Z,98405.16
2022-07-28T20:05:08.395Z,98411.50
2022-07-28T20:07:35.393Z,98410.53
2022-07-28T20:10:02.031Z,98416.22
2022-07-28T20:12:34.242Z,98416.38
2022-07-28T20:15:05.015Z,98409.88
2022-07-28T20:17:38.462Z,98419.59
2022-07-28T20:20:12.767Z,98421.78
2022-07-28T20:22:41.141Z,98418.59
2022-07-28T20:25:10.007Z,98417.47
2022-07-28T20:27:40.630Z,98421.47
2022-07-28T20:30:10.218Z,98425.28
2022-07-28T20:32:38.129Z,98428.97
2022-07-28T20:35:07.017Z,98421.47
2022-07-28T20:37:35.969Z,98423.63
2022-07-28T20:40:05.920Z,98420.25
2022-07-28T20:42:32.462Z,98426.59
2022-07-28T20:44:58.978Z,98427.25
2022-07-28T20:47:25.992Z,98428.25
2022-07-28T20:49:53.381Z,98427.41
2022-07-28T20:52:19.873Z,98421.72
2022-07-28T20:54:50.612Z,98421.88
2022-07-28T20:57:20.292Z,98432.38
2022-07-28T20:59:48.799Z,98436.25
2022-07-28T21:02:15.378Z,98437.72
2022-07-28T21:04:41.892Z,98436.66
2022-07-28T21:07:10.183Z,98430.66
2022-07-28T21:09:36.712Z,98434.25
2022-07-28T21:12:03.702Z,98438.72
2022-07-28T21:14:32.151Z,98444.03
2022-07-28T21:16:58.908Z,98450.97
2022-07-28T21:19:25.564Z,98450.63
2022-07-28T21:21:52.520Z,98458.44
2022-07-28T21:24:19.365Z,98454.88
2022-07-28T21:26:46.286Z,98452.69
2022-07-28T21:32:04.170Z,98461.44
2022-07-28T21:34:34.512Z,98458.53
2022-07-28T21:37:06.699Z,98460.84
2022-07-28T21:39:34.327Z,98454.25
2022-07-28T21:42:01.070Z,98455.03
2022-07-28T21:44:27.591Z,98452.84
2022-07-28T21:46:54.163Z,98453.16
2022-07-28T21:49:21.036Z,98456.97
2022-07-28T21:51:47.619Z,98452.13
2022-07-28T21:54:14.438Z,98450.81
2022-07-28T21:56:41.193Z,98451.84
2022-07-28T21:59:07.707Z,98458.16
2022-07-28T22:01:34.408Z,98460.78
2022-07-28T22:04:01.039Z,98464.44
2022-07-28T22:06:27.545Z,98462.44
2022-07-28T22:08:54.213Z,98460.53
2022-07-28T22:11:22.872Z,98459.19
2022-07-28T22:13:49.510Z,98457.13
2022-07-28T22:16:16.136Z,98463.53
2022-07-28T22:18:42.731Z,98464.75
2022-07-28T22:21:09.378Z,98469.00
2022-07-28T22:23:35.912Z,98473.41
2022-07-28T22:26:03.049Z,98468.53
2022-07-28T22:28:30.620Z,98472.16
2022-07-28T22:30:59.054Z,98467.41
2022-07-28T22:33:40.134Z,98466.34
2022-07-28T22:36:08.790Z,98465.78
2022-07-28T22:38:36.016Z,98470.44
2022-07-28T22:41:02.978Z,98468.63
2022-07-28T22:43:33.176Z,98476.44
2022-07-28T22:45:59.818Z,98469.09
2022-07-28T22:48:26.418Z,98465.88
2022-07-28T22:50:53.064Z,98468.53
2022-07-28T22:53:19.629Z,98462.06
2022-07-28T22:55:46.151Z,98461.75
2022-07-28T22:58:12.656Z,98462.00
2022-07-28T23:00:39.281Z,98460.34
2022-07-28T23:03:05.920Z,98463.00
2022-07-28T23:05:33.726Z,98462.31
2022-07-28T23:08:00.241Z,98458.63
2022-07-28T23:10:26.972Z,98463.38
2022-07-28T23:12:57.228Z,98455.75
2022-07-28T23:15:25.138Z,98450.13
2022-07-28T23:18:13.533Z,98456.53
2022-07-28T23:20:41.459Z,98455.91
2022-07-28T23:23:08.787Z,98455.53
2022-07-28T23:25:42.604Z,98454.53
2022-07-28T23:28:09.714Z,98460.56
2022-07-28T23:30:36.355Z,98455.69
2022-07-28T23:33:04.907Z,98451.50
2022-07-28T23:35:31.545Z,98448.16
2022-07-28T23:37:58.059Z,98442.84
2022-07-28T23:40:24.631Z,98444.72
2022-07-28T23:42:51.138Z,98444.38
2022-07-28T23:45:17.644Z,98447.16
2022-07-28T23:47:44.201Z,98450.44
2022-07-28T23:50:10.887Z,98445.53
2022-07-28T23:52:37.412Z,98442.03
2022-07-28T23:55:05.127Z,98438.25
2022-07-28T23:57:31.842Z,98440.47
